Time;durP1;ratioP1;P1;durP2;ratioP2;P2;SDS_P1;SDS_P2;PMS_P1;PMS_P2;Temp;Humidity;BMP_temperature;BMP_pressure;BME280_temperature;BME280_humidity;BME280_pressure;Samples;Min_cycle;Max_cycle;Signal;HPM_P1;HPM_P2
2021/03/20 00:01:20;;;;;;;3.65;2.00;;;;;;;;;;5047183;28;20042;-63
2021/03/20 00:03:46;;;;;;;4.88;2.30;;;;;;;;;;5050118;28;20041;-63
2021/03/20 00:06:13;;;;;;;4.35;1.73;;;;;;;;;;5049841;28;20033;-63
2021/03/20 00:08:40;;;;;;;;;;;;;;;;;;5045162;28;20045;-63
2021/03/20 00:11:06;;;;;;;3.40;1.83;;;;;;;;;;5048529;28;19921;-63
2021/03/20 00:13:33;;;;;;;3.45;1.75;;;;;;;;;;5040909;28;20036;-63
2021/03/20 00:15:59;;;;;;;8.52;2.17;;;;;;;;;;5050390;28;20056;-63
2021/03/20 00:18:26;;;;;;;4.50;1.95;;;;;;;;;;5044742;28;20040;-63
2021/03/20 00:20:53;;;;;;;6.75;2.08;;;;;;;;;;5053513;28;20052;-63
2021/03/20 00:23:19;;;;;;;4.83;2.20;;;;;;;;;;5047000;28;20041;-63
2021/03/20 00:25:46;;;;;;;4.25;1.90;;;;;;;;;;5050164;28;20087;-63
2021/03/20 00:28:23;;;;;;;2.85;1.90;;;;;;;;;;5046836;28;20508;-63
2021/03/20 00:30:54;;;;;;;4.53;1.95;;;;;;;;;;5048510;28;20045;-63
2021/03/20 00:33:21;;;;;;;6.65;2.17;;;;;;;;;;5048647;28;20125;-63
2021/03/20 00:35:48;;;;;;;9.73;1.85;;;;;;;;;;5043520;28;20136;-63
2021/03/20 00:38:14;;;;;;;6.03;2.17;;;;;;;;;;5049071;28;20427;-63
2021/03/20 00:40:41;;;;;;;9.30;2.50;;;;;;;;;;5047468;28;20056;-63
2021/03/20 00:43:07;;;;;;;4.93;2.15;;;;;;;;;;5043150;28;20492;-63
2021/03/20 00:45:34;;;;;;;3.70;2.00;;;;;;;;;;5043813;28;20496;-63
2021/03/20 00:48:08;;;;;;;4.90;2.13;;;;;;;;;;5047514;28;20315;-63
2021/03/20 00:50:34;;;;;;;4.93;1.98;;;;;;;;;;5042729;28;20135;-63
2021/03/20 00:53:02;;;;;;;4.00;1.85;;;;;;;;;;5040602;28;20045;-63
2021/03/20 00:55:29;;;;;;;7.45;2.40;;;;;;;;;;5049887;28;20497;-63
2021/03/20 00:57:55;;;;;;;6.32;2.03;;;;;;;;;;5055223;28;20496;-63
2021/03/20 01:00:23;;;;;;;5.05;2.03;;;;;;;;;;5043244;28;20448;-63
2021/03/20 01:02:50;;;;;;;9.57;2.63;;;;;;;;;;5053701;28;20079;-63
2021/03/20 01:05:16;;;;;;;5.00;2.25;;;;;;;;;;5048140;28;20503;-63
2021/03/20 01:07:43;;;;;;;3.58;1.48;;;;;;;;;;5046099;28;20577;-63
2021/03/20 01:10:11;;;;;;;7.85;2.55;;;;;;;;;;5045840;28;20056;-63
2021/03/20 01:12:38;;;;;;;6.05;2.40;;;;;;;;;;5040533;28;20041;-63
2021/03/20 01:15:06;;;;;;;5.53;2.10;;;;;;;;;;5044428;28;20412;-63
2021/03/20 01:17:32;;;;;;;;;;;;;;;;;;5048057;28;20123;-63
2021/03/20 01:19:59;;;;;;;7.22;2.30;;;;;;;;;;5047168;28;19924;-63
2021/03/20 01:22:26;;;;;;;4.80;1.90;;;;;;;;;;5044099;28;20044;-64
2021/03/20 01:24:52;;;;;;;4.22;1.88;;;;;;;;;;5050043;28;20317;-63
2021/03/20 01:27:18;;;;;;;9.65;2.35;;;;;;;;;;5040639;28;20072;-63
2021/03/20 01:29:44;;;;;;;4.90;2.08;;;;;;;;;;5043207;28;20079;-63
2021/03/20 01:32:10;;;;;;;5.75;2.45;;;;;;;;;;5040183;28;20489;-63
2021/03/20 01:34:37;;;;;;;5.15;2.05;;;;;;;;;;5049517;28;20068;-63
2021/03/20 01:37:03;;;;;;;4.25;2.10;;;;;;;;;;5048233;28;20493;-63
2021/03/20 01:39:46;;;;;;;5.45;1.88;;;;;;;;;;5047597;28;20122;-63
2021/03/20 01:42:12;;;;;;;4.28;2.20;;;;;;;;;;5044102;28;20034;-63
2021/03/20 01:44:39;;;;;;;4.85;2.25;;;;;;;;;;5047895;28;20440;-63
2021/03/20 01:47:09;;;;;;;7.38;2.10;;;;;;;;;;5045479;28;20120;-63
2021/03/20 01:49:39;;;;;;;5.15;2.25;;;;;;;;;;5059382;28;20044;-63
2021/03/20 01:52:20;;;;;;;4.22;1.90;;;;;;;;;;5052245;28;20052;-63
2021/03/20 01:54:55;;;;;;;4.88;2.13;;;;;;;;;;5044634;28;20056;-63
2021/03/20 01:57:48;;;;;;;8.70;2.33;;;;;;;;;;5043533;28;20448;-63
2021/03/20 02:00:21;;;;;;;4.82;1.98;;;;;;;;;;5041228;28;20049;-63
2021/03/20 02:02:47;;;;;;;4.90;2.20;;;;;;;;;;5056310;28;20049;-63
2021/03/20 02:05:18;;;;;;;8.48;2.28;;;;;;;;;;5046524;28;20526;-63
2021/03/20 02:07:44;;;;;;;5.75;2.90;;;;;;;;;;5046537;28;20048;-63
2021/03/20 02:10:12;;;;;;;4.43;2.00;;;;;;;;;;5045524;28;20257;-63
2021/03/20 02:12:40;;;;;;;7.28;2.33;;;;;;;;;;5046523;28;20049;-63
2021/03/20 02:15:22;;;;;;;6.78;2.22;;;;;;;;;;5044491;28;20039;-63
2021/03/20 02:17:55;;;;;;;6.47;2.28;;;;;;;;;;5046203;28;20045;-63
2021/03/20 02:20:30;;;;;;;6.90;2.50;;;;;;;;;;5041341;28;20052;-63
2021/03/20 02:23:13;;;;;;;6.60;2.75;;;;;;;;;;5045533;28;20132;-63
2021/03/20 02:25:58;;;;;;;8.27;2.20;;;;;;;;;;5046369;28;20048;-63
2021/03/20 02:28:26;;;;;;;7.95;2.78;;;;;;;;;;5041597;28;20052;-63
2021/03/20 02:31:10;;;;;;;7.70;2.50;;;;;;;;;;5046434;28;20131;-63
2021/03/20 02:33:41;;;;;;;10.23;3.33;;;;;;;;;;5040848;28;20041;-63
2021/03/20 02:36:10;;;;;;;4.35;2.33;;;;;;;;;;5041198;28;20488;-63
2021/03/20 02:38:44;;;;;;;6.50;3.00;;;;;;;;;;5048694;28;20462;-63
2021/03/20 02:41:21;;;;;;;5.15;2.45;;;;;;;;;;5043919;28;20098;-63
2021/03/20 02:43:59;;;;;;;8.07;2.70;;;;;;;;;;5048068;28;20045;-63
2021/03/20 02:46:26;;;;;;;4.90;2.53;;;;;;;;;;5048082;28;20110;-63
2021/03/20 02:48:58;;;;;;;8.50;2.90;;;;;;;;;;5049472;28;20567;-63
2021/03/20 02:51:43;;;;;;;8.77;2.58;;;;;;;;;;5051985;28;20110;-63
2021/03/20 02:54:12;;;;;;;11.52;2.63;;;;;;;;;;5048379;28;20493;-63
2021/03/20 02:56:46;;;;;;;9.13;3.28;;;;;;;;;;5049624;28;20044;-63
2021/03/20 02:59:13;;;;;;;11.18;2.75;;;;;;;;;;5042909;28;20504;-63
2021/03/20 03:01:41;;;;;;;10.33;3.00;;;;;;;;;;5052217;28;20041;-63
2021/03/20 03:04:09;;;;;;;11.88;2.90;;;;;;;;;;5052528;28;20095;-64
2021/03/20 03:06:48;;;;;;;11.10;2.67;;;;;;;;;;5049193;28;20136;-64
2021/03/20 03:09:35;;;;;;;10.10;2.67;;;;;;;;;;5046845;28;20598;-64
2021/03/20 03:12:04;;;;;;;7.57;2.60;;;;;;;;;;5047944;28;20219;-63
2021/03/20 03:14:43;;;;;;;15.63;2.95;;;;;;;;;;5047352;28;20047;-63
2021/03/20 03:17:10;;;;;;;10.15;2.65;;;;;;;;;;5041609;28;20587;-63
2021/03/20 03:19:51;;;;;;;11.30;3.10;;;;;;;;;;5045312;28;20073;-63
2021/03/20 03:22:23;;;;;;;10.82;3.00;;;;;;;;;;5048923;28;20041;-63
2021/03/20 03:24:51;;;;;;;10.10;3.20;;;;;;;;;;5054559;28;20120;-63
2021/03/20 03:27:17;;;;;;;11.77;2.85;;;;;;;;;;5050395;28;20050;-63
2021/03/20 03:29:43;;;;;;;16.17;3.10;;;;;;;;;;5054371;28;20060;-63
2021/03/20 03:32:14;;;;;;;13.75;3.13;;;;;;;;;;5043791;28;20440;-63
2021/03/20 03:34:56;;;;;;;13.68;3.20;;;;;;;;;;5046292;28;20033;-63
2021/03/20 03:37:35;;;;;;;14.00;3.17;;;;;;;;;;5045820;28;20535;-63
2021/03/20 03:40:18;;;;;;;29.60;3.55;;;;;;;;;;5044506;28;20052;-64
2021/03/20 03:42:47;;;;;;;13.13;3.85;;;;;;;;;;5050432;28;20504;-63
2021/03/20 03:45:15;;;;;;;18.83;3.72;;;;;;;;;;5048654;28;20120;-64
2021/03/20 03:47:42;;;;;;;20.90;4.05;;;;;;;;;;5052958;28;20504;-64
2021/03/20 03:50:11;;;;;;;10.40;2.88;;;;;;;;;;5053543;28;20496;-63
2021/03/20 03:52:37;;;;;;;20.70;3.72;;;;;;;;;;5047690;28;20123;-64
2021/03/20 03:55:05;;;;;;;17.00;3.72;;;;;;;;;;5049817;28;20117;-64
2021/03/20 03:57:50;;;;;;;15.05;3.80;;;;;;;;;;5050933;28;20045;-63
2021/03/20 04:00:20;;;;;;;17.98;3.60;;;;;;;;;;5049890;28;20045;-64
2021/03/20 04:02:51;;;;;;;20.50;3.72;;;;;;;;;;5050821;28;20048;-64
2021/03/20 04:05:23;;;;;;;16.48;3.40;;;;;;;;;;5041750;28;20037;-63
2021/03/20 04:07:56;;;;;;;20.02;4.00;;;;;;;;;;5049248;28;20048;-63
2021/03/20 04:10:22;;;;;;;25.90;3.78;;;;;;;;;;5042892;28;21871;-64
2021/03/20 04:12:48;;;;;;;15.13;3.28;;;;;;;;;;5048429;28;20132;-64
2021/03/20 04:15:20;;;;;;;18.73;3.80;;;;;;;;;;5046874;28;20033;-63
2021/03/20 04:17:47;;;;;;;16.08;3.45;;;;;;;;;;5045002;28;20037;-63
2021/03/20 04:20:18;;;;;;;13.43;3.60;;;;;;;;;;5047072;28;20037;-63
2021/03/20 04:22:54;;;;;;;14.68;4.07;;;;;;;;;;5040075;28;20782;-63
2021/03/20 04:25:58;;;;;;;24.42;3.83;;;;;;;;;;5049686;28;20051;-63
2021/03/20 04:28:48;;;;;;;13.35;3.15;;;;;;;;;;5007554;28;20053;-63
2021/03/20 04:31:20;;;;;;;16.23;3.50;;;;;;;;;;4996826;28;20425;-64
2021/03/20 04:33:59;;;;;;;16.33;3.83;;;;;;;;;;5027593;28;20538;-63
2021/03/20 04:36:30;;;;;;;18.63;3.47;;;;;;;;;;5047893;28;20068;-64
2021/03/20 04:38:56;;;;;;;16.58;3.63;;;;;;;;;;5042894;28;20041;-63
2021/03/20 04:41:22;;;;;;;16.08;3.95;;;;;;;;;;5046859;28;20046;-64
2021/03/20 04:43:49;;;;;;;15.77;3.72;;;;;;;;;;5043227;28;20412;-63
2021/03/20 04:46:20;;;;;;;29.73;4.45;;;;;;;;;;5044493;28;20041;-63
2021/03/20 04:49:13;;;;;;;20.98;3.70;;;;;;;;;;5045902;28;20041;-63
2021/03/20 04:51:41;;;;;;;20.80;3.95;;;;;;;;;;5033293;28;20045;-63
2021/03/20 04:54:10;;;;;;;18.85;3.80;;;;;;;;;;5042965;28;20049;-63
2021/03/20 04:56:41;;;;;;;13.85;4.28;;;;;;;;;;5048170;28;20045;-63
2021/03/20 04:59:15;;;;;;;22.98;4.80;;;;;;;;;;5048541;28;20056;-63
2021/03/20 05:01:48;;;;;;;20.92;4.13;;;;;;;;;;5048967;28;20051;-63
2021/03/20 05:04:23;;;;;;;25.77;4.28;;;;;;;;;;5042993;28;20451;-63
2021/03/20 05:06:50;;;;;;;10.75;3.67;;;;;;;;;;5048372;28;20162;-63
2021/03/20 05:09:22;;;;;;;17.67;3.78;;;;;;;;;;5047248;28;20120;-63
2021/03/20 05:11:48;;;;;;;19.40;4.07;;;;;;;;;;5050813;28;20044;-63
2021/03/20 05:14:23;;;;;;;18.27;3.95;;;;;;;;;;5048035;28;20159;-63
2021/03/20 05:16:51;;;;;;;16.13;4.65;;;;;;;;;;5045209;28;20045;-63
2021/03/20 05:19:19;;;;;;;20.13;3.92;;;;;;;;;;5042603;28;20044;-63
2021/03/20 05:21:46;;;;;;;14.13;3.75;;;;;;;;;;5045592;28;20041;-63
2021/03/20 05:24:20;;;;;;;14.45;3.72;;;;;;;;;;5045005;28;20558;-63
2021/03/20 05:26:47;;;;;;;17.05;5.20;;;;;;;;;;5051558;28;20099;-63
2021/03/20 05:29:14;;;;;;;16.38;4.15;;;;;;;;;;5044957;28;20063;-63
2021/03/20 05:31:40;;;;;;;18.75;4.13;;;;;;;;;;5042885;28;20063;-63
2021/03/20 05:34:14;;;;;;;17.20;3.70;;;;;;;;;;5043862;28;20049;-63
2021/03/20 05:36:40;;;;;;;17.30;4.13;;;;;;;;;;5050032;28;20048;-63
2021/03/20 05:39:06;;;;;;;23.70;4.95;;;;;;;;;;5046665;28;20129;-63
2021/03/20 05:41:32;;;;;;;14.55;4.20;;;;;;;;;;5047578;28;20068;-63
2021/03/20 05:44:06;;;;;;;17.02;4.53;;;;;;;;;;5043672;28;20583;-63
2021/03/20 05:46:36;;;;;;;19.77;4.13;;;;;;;;;;5036508;28;20048;-64
2021/03/20 05:49:03;;;;;;;17.83;4.32;;;;;;;;;;5044558;28;20048;-63
2021/03/20 05:51:38;;;;;;;26.63;4.45;;;;;;;;;;5043201;28;20048;-63
2021/03/20 05:54:04;;;;;;;19.67;4.43;;;;;;;;;;5044502;28;20044;-64
2021/03/20 05:56:50;;;;;;;25.10;5.10;;;;;;;;;;5045436;28;20069;-64
2021/03/20 05:59:31;;;;;;;26.30;4.55;;;;;;;;;;5046510;28;20053;-64
2021/03/20 06:02:06;;;;;;;19.75;4.88;;;;;;;;;;5039366;28;20045;-63
2021/03/20 06:04:38;;;;;;;23.98;4.57;;;;;;;;;;5040902;28;20048;-63
2021/03/20 06:07:14;;;;;;;22.08;5.05;;;;;;;;;;5044719;28;20087;-63
2021/03/20 06:10:07;;;;;;;26.38;5.15;;;;;;;;;;5047299;28;20060;-64
2021/03/20 06:12:33;;;;;;;26.02;4.97;;;;;;;;;;5025295;28;20111;-63
2021/03/20 06:15:19;;;;;;;23.38;4.60;;;;;;;;;;5044286;28;20053;-63
2021/03/20 06:18:00;;;;;;;18.90;4.55;;;;;;;;;;5047766;28;20048;-64
2021/03/20 06:20:35;;;;;;;21.05;4.18;;;;;;;;;;5044750;28;20063;-63
2021/03/20 06:23:20;;;;;;;21.17;4.32;;;;;;;;;;5048972;28;20448;-63
2021/03/20 06:25:55;;;;;;;22.80;4.20;;;;;;;;;;5048765;28;20471;-63
2021/03/20 06:28:25;;;;;;;18.83;4.30;;;;;;;;;;5047121;28;20045;-63
2021/03/20 06:30:55;;;;;;;17.25;4.90;;;;;;;;;;5052437;28;20041;-63
2021/03/20 06:33:41;;;;;;;16.92;4.13;;;;;;;;;;5048625;28;20042;-63
2021/03/20 06:36:15;;;;;;;20.20;4.18;;;;;;;;;;5016722;28;20059;-63
2021/03/20 06:38:44;;;;;;;16.30;3.75;;;;;;;;;;5042312;28;20041;-63
2021/03/20 06:41:27;;;;;;;21.42;4.70;;;;;;;;;;5045026;28;20033;-63
2021/03/20 06:43:55;;;;;;;20.63;5.07;;;;;;;;;;5048283;28;20041;-63
2021/03/20 06:46:28;;;;;;;29.23;4.70;;;;;;;;;;5050801;28;20885;-63
2021/03/20 06:48:55;;;;;;;24.00;4.20;;;;;;;;;;5049712;28;20052;-63
2021/03/20 06:51:21;;;;;;;22.30;4.47;;;;;;;;;;5047117;28;20065;-63
2021/03/20 06:54:01;;;;;;;23.92;5.03;;;;;;;;;;5046415;28;20814;-63
2021/03/20 06:56:29;;;;;;;22.33;4.00;;;;;;;;;;5048099;28;20536;-63
2021/03/20 06:58:57;;;;;;;21.85;4.60;;;;;;;;;;5049724;28;20447;-63
2021/03/20 07:01:26;;;;;;;23.33;4.63;;;;;;;;;;5048869;28;20130;-63
2021/03/20 07:04:05;;;;;;;17.92;4.30;;;;;;;;;;5044831;28;20044;-64
2021/03/20 07:07:07;;;;;;;26.15;4.15;;;;;;;;;;5050180;28;20128;-63
2021/03/20 07:09:34;;;;;;;20.38;4.30;;;;;;;;;;4981118;28;20050;-63
2021/03/20 07:12:12;;;;;;;19.85;3.60;;;;;;;;;;5040960;28;20076;-63
2021/03/20 07:14:38;;;;;;;21.98;4.18;;;;;;;;;;5048112;28;20045;-63
2021/03/20 07:17:06;;;;;;;20.60;3.58;;;;;;;;;;5046139;28;20041;-63
2021/03/20 07:19:32;;;;;;;20.30;3.85;;;;;;;;;;5045946;28;20051;-62
2021/03/20 07:21:58;;;;;;;28.73;4.65;;;;;;;;;;5045982;28;20048;-63
2021/03/20 07:24:33;;;;;;;26.55;3.78;;;;;;;;;;5044416;28;20118;-63
2021/03/20 07:27:18;;;;;;;18.20;4.07;;;;;;;;;;5045741;28;20071;-63
2021/03/20 07:30:08;;;;;;;20.25;3.60;;;;;;;;;;5044191;28;20053;-63
2021/03/20 07:32:39;;;;;;;18.15;3.53;;;;;;;;;;5044096;28;20102;-63
2021/03/20 07:35:15;;;;;;;17.42;3.60;;;;;;;;;;5038929;28;20061;-63
2021/03/20 07:37:41;;;;;;;23.35;4.18;;;;;;;;;;5045719;28;20049;-62
2021/03/20 07:40:19;;;;;;;21.35;3.78;;;;;;;;;;5050205;28;20491;-63
2021/03/20 07:42:46;;;;;;;27.38;3.63;;;;;;;;;;5043859;28;20091;-63
2021/03/20 07:45:18;;;;;;;18.27;3.53;;;;;;;;;;5041010;28;20144;-62
2021/03/20 07:47:58;;;;;;;30.98;3.63;;;;;;;;;;5040574;28;20037;-63
2021/03/20 07:50:26;;;;;;;20.92;3.47;;;;;;;;;;5050116;28;20049;-63
2021/03/20 07:53:01;;;;;;;17.02;3.38;;;;;;;;;;5046889;28;20049;-63
2021/03/20 07:55:29;;;;;;;21.13;3.65;;;;;;;;;;5050476;28;20095;-63
2021/03/20 07:57:57;;;;;;;17.23;3.20;;;;;;;;;;5050193;28;20064;-63
2021/03/20 08:00:25;;;;;;;20.35;3.15;;;;;;;;;;5050964;28;20123;-63
2021/03/20 08:02:51;;;;;;;22.52;3.65;;;;;;;;;;5046534;28;20049;-63
2021/03/20 08:05:17;;;;;;;19.20;3.80;;;;;;;;;;5043739;28;20370;-63
2021/03/20 08:07:48;;;;;;;18.42;3.30;;;;;;;;;;5045089;28;20065;-62
2021/03/20 08:10:28;;;;;;;14.25;2.55;;;;;;;;;;5047915;28;20072;-63
2021/03/20 08:12:58;;;;;;;22.77;3.13;;;;;;;;;;5046212;28;20047;-63
2021/03/20 08:15:57;;;;;;;19.02;3.60;;;;;;;;;;5046473;28;20049;-63
2021/03/20 08:18:23;;;;;;;23.35;3.65;;;;;;;;;;5005973;28;20079;-63
2021/03/20 08:20:58;;;;;;;21.25;3.78;;;;;;;;;;5040483;28;20877;-62
2021/03/20 08:23:24;;;;;;;16.42;3.35;;;;;;;;;;5046523;28;20052;-62
2021/03/20 08:26:16;;;;;;;16.77;3.10;;;;;;;;;;5046265;28;20526;-63
2021/03/20 08:28:52;;;;;;;16.85;3.45;;;;;;;;;;5043258;28;20099;-62
2021/03/20 08:31:40;;;;;;;17.90;3.15;;;;;;;;;;5044300;28;20049;-63
2021/03/20 08:34:07;;;;;;;25.15;4.53;;;;;;;;;;5040340;28;20038;-62
2021/03/20 08:36:42;;;;;;;25.48;4.10;;;;;;;;;;5043929;28;20652;-63
2021/03/20 08:39:08;;;;;;;18.98;2.90;;;;;;;;;;5042298;28;20171;-63
2021/03/20 08:41:44;;;;;;;22.80;3.35;;;;;;;;;;5046623;28;20045;-62
2021/03/20 08:44:29;;;;;;;13.48;2.70;;;;;;;;;;5050884;28;20429;-63
2021/03/20 08:47:10;;;;;;;29.70;3.40;;;;;;;;;;5046012;28;20040;-63
2021/03/20 08:49:55;;;;;;;25.17;4.05;;;;;;;;;;5049130;28;20107;-63
2021/03/20 08:52:26;;;;;;;23.55;4.25;;;;;;;;;;5043287;28;20037;-63
2021/03/20 08:55:15;;;;;;;28.85;4.40;;;;;;;;;;5043947;28;20052;-63
2021/03/20 08:58:00;;;;;;;17.50;3.35;;;;;;;;;;5043090;28;20041;-63
2021/03/20 09:00:48;;;;;;;19.00;3.20;;;;;;;;;;5042620;28;20036;-63
2021/03/20 09:03:16;;;;;;;25.00;3.35;;;;;;;;;;5045547;28;20396;-63
2021/03/20 09:05:45;;;;;;;19.58;3.33;;;;;;;;;;5044631;28;20037;-63
2021/03/20 09:08:23;;;;;;;23.95;3.50;;;;;;;;;;5045382;28;20041;-63
2021/03/20 09:10:59;;;;;;;21.52;2.72;;;;;;;;;;5049951;28;20064;-63
2021/03/20 09:13:45;;;;;;;20.38;4.38;;;;;;;;;;5043156;28;20075;-63
2021/03/20 09:16:20;;;;;;;12.52;3.05;;;;;;;;;;5035535;28;20037;-63
2021/03/20 09:18:47;;;;;;;19.02;3.60;;;;;;;;;;5042470;28;20068;-63
2021/03/20 09:21:14;;;;;;;19.45;3.72;;;;;;;;;;5049321;28;20113;-63
2021/03/20 09:23:43;;;;;;;18.48;3.45;;;;;;;;;;5041344;28;20068;-63
2021/03/20 09:26:11;;;;;;;18.67;3.45;;;;;;;;;;5043986;28;20053;-63
2021/03/20 09:28:50;;;;;;;15.38;2.95;;;;;;;;;;5043198;28;20040;-63
2021/03/20 09:31:16;;;;;;;;;;;;;;;;;;5046347;28;20032;-63
2021/03/20 09:33:43;;;;;;;19.13;3.38;;;;;;;;;;5042647;28;20013;-63
2021/03/20 09:36:29;;;;;;;26.95;3.75;;;;;;;;;;5042282;28;20037;-63
2021/03/20 09:38:56;;;;;;;15.68;3.22;;;;;;;;;;5038677;28;20500;-63
2021/03/20 09:41:22;;;;;;;20.45;2.90;;;;;;;;;;5047242;28;20558;-61
2021/03/20 09:44:06;;;;;;;12.25;2.90;;;;;;;;;;5046259;28;20049;-61
2021/03/20 09:46:34;;;;;;;14.00;3.10;;;;;;;;;;5034578;28;20041;-60
2021/03/20 09:49:03;;;;;;;18.27;2.95;;;;;;;;;;5044452;28;20041;-61
2021/03/20 09:51:51;;;;;;;17.85;3.65;;;;;;;;;;5045219;28;20041;-61
2021/03/20 09:54:24;;;;;;;22.73;3.33;;;;;;;;;;5043560;28;20154;-61
2021/03/20 09:57:06;;;;;;;25.83;3.22;;;;;;;;;;5045195;28;20045;-61
2021/03/20 09:59:35;;;;;;;17.58;2.95;;;;;;;;;;5045765;28;20045;-61
2021/03/20 10:02:01;;;;;;;15.63;2.55;;;;;;;;;;5048164;28;20071;-61
2021/03/20 10:04:27;;;;;;;9.75;2.40;;;;;;;;;;5048997;28;20495;-61
2021/03/20 10:07:12;;;;;;;23.13;3.58;;;;;;;;;;5041553;28;20037;-61
2021/03/20 10:09:53;;;;;;;12.10;3.22;;;;;;;;;;5045652;28;20044;-61
2021/03/20 10:12:26;;;;;;;18.13;3.20;;;;;;;;;;5045454;28;20040;-61
2021/03/20 10:17:57;;;;;;;22.75;3.03;;;;;;;;;;5032692;28;20052;-61
2021/03/20 10:20:34;;;;;;;19.45;3.03;;;;;;;;;;5052678;28;20053;-61
2021/03/20 10:23:02;;;;;;;17.95;3.50;;;;;;;;;;5051867;28;20488;-61
2021/03/20 10:25:29;;;;;;;15.32;2.80;;;;;;;;;;5049380;28;20045;-61
2021/03/20 10:28:06;;;;;;;23.35;2.72;;;;;;;;;;5045261;28;20037;-61
2021/03/20 10:30:34;;;;;;;11.45;2.67;;;;;;;;;;5050965;28;20048;-61
2021/03/20 10:33:04;;;;;;;15.90;2.85;;;;;;;;;;5052812;28;20045;-61
2021/03/20 10:35:33;;;;;;;10.85;2.15;;;;;;;;;;5041059;28;20138;-61
2021/03/20 10:38:23;;;;;;;16.52;3.08;;;;;;;;;;5047000;28;20052;-61
2021/03/20 10:41:22;;;;;;;16.75;2.60;;;;;;;;;;5049196;28;20083;-61
2021/03/20 10:44:20;;;;;;;15.82;3.42;;;;;;;;;;5029526;28;20041;-61
2021/03/20 10:46:58;;;;;;;16.33;2.45;;;;;;;;;;5002632;28;20529;-61
2021/03/20 10:49:26;;;;;;;20.45;3.67;;;;;;;;;;5050017;28;20037;-61
2021/03/20 10:51:53;;;;;;;13.02;2.58;;;;;;;;;;5049803;28;20052;-61
2021/03/20 10:54:24;;;;;;;17.25;3.28;;;;;;;;;;5048911;28;20072;-61
2021/03/20 10:56:52;;;;;;;17.83;2.65;;;;;;;;;;5052576;28;20146;-61
2021/03/20 10:59:28;;;;;;;16.83;3.25;;;;;;;;;;5047469;28;20067;-61
2021/03/20 11:01:54;;;;;;;17.10;2.97;;;;;;;;;;5057025;28;20456;-61
2021/03/20 11:04:26;;;;;;;20.23;3.78;;;;;;;;;;5051568;28;20048;-61
2021/03/20 11:06:53;;;;;;;21.20;3.72;;;;;;;;;;5049991;28;20048;-61
2021/03/20 11:09:20;;;;;;;;;;;;;;;;;;5051402;28;20056;-61
2021/03/20 11:11:46;;;;;;;21.05;4.15;;;;;;;;;;5050025;28;19928;-61
2021/03/20 11:14:20;;;;;;;17.98;3.50;;;;;;;;;;5052060;28;20029;-61
2021/03/20 11:16:46;;;;;;;16.92;3.13;;;;;;;;;;5055756;28;20110;-61
2021/03/20 11:19:12;;;;;;;16.33;3.17;;;;;;;;;;5055241;28;20531;-61
2021/03/20 11:21:40;;;;;;;20.52;2.80;;;;;;;;;;5049035;28;20451;-61
2021/03/20 11:24:15;;;;;;;18.92;2.95;;;;;;;;;;5048674;28;20088;-61
2021/03/20 11:26:46;;;;;;;12.95;2.60;;;;;;;;;;5049422;28;20053;-61
2021/03/20 11:29:14;;;;;;;18.95;2.92;;;;;;;;;;5048816;28;20440;-61
2021/03/20 11:31:43;;;;;;;16.25;3.05;;;;;;;;;;5048554;28;20057;-61
2021/03/20 11:34:13;;;;;;;16.13;2.83;;;;;;;;;;5041431;28;20064;-61
2021/03/20 11:36:40;;;;;;;17.20;2.65;;;;;;;;;;5043830;28;20653;-61
2021/03/20 11:39:07;;;;;;;13.18;2.45;;;;;;;;;;5047717;28;20045;-61
2021/03/20 11:41:36;;;;;;;12.73;2.42;;;;;;;;;;5045506;28;20535;-61
2021/03/20 11:44:05;;;;;;;11.63;2.60;;;;;;;;;;5046129;28;20308;-61
2021/03/20 11:46:35;;;;;;;15.23;3.05;;;;;;;;;;5043633;28;20048;-61
2021/03/20 11:49:06;;;;;;;17.65;3.25;;;;;;;;;;5044349;28;20087;-61
2021/03/20 11:51:39;;;;;;;14.70;2.60;;;;;;;;;;5044825;28;20044;-61
2021/03/20 11:54:38;;;;;;;15.80;2.50;;;;;;;;;;5049652;28;20049;-61
2021/03/20 11:57:11;;;;;;;11.10;2.53;;;;;;;;;;5032056;28;20129;-61
2021/03/20 11:59:47;;;;;;;13.05;3.13;;;;;;;;;;5049221;28;20484;-61
2021/03/20 12:02:25;;;;;;;16.23;3.15;;;;;;;;;;5046446;28;20055;-61
2021/03/20 12:05:10;;;;;;;12.57;3.05;;;;;;;;;;5047456;28;20080;-61
2021/03/20 12:07:39;;;;;;;15.25;2.85;;;;;;;;;;5049923;28;20536;-61
2021/03/20 12:10:13;;;;;;;15.73;3.35;;;;;;;;;;5048072;28;20060;-61
2021/03/20 12:12:43;;;;;;;25.27;4.13;;;;;;;;;;5052239;28;20052;-61
2021/03/20 12:15:20;;;;;;;13.25;3.03;;;;;;;;;;5044298;28;20511;-61
2021/03/20 12:17:52;;;;;;;17.92;4.95;;;;;;;;;;5048947;28;20056;-61
2021/03/20 12:20:27;;;;;;;16.13;3.45;;;;;;;;;;5049696;28;20065;-61
2021/03/20 12:23:10;;;;;;;15.75;3.58;;;;;;;;;;5047229;28;20488;-61
2021/03/20 12:25:39;;;;;;;21.33;4.35;;;;;;;;;;5046434;28;20045;-61
2021/03/20 12:28:15;;;;;;;15.75;3.45;;;;;;;;;;5046218;28;20143;-61
2021/03/20 12:30:41;;;;;;;21.63;4.00;;;;;;;;;;5045165;28;20049;-61
2021/03/20 12:33:10;;;;;;;16.75;3.97;;;;;;;;;;5046008;28;20041;-61
2021/03/20 12:35:41;;;;;;;22.20;5.65;;;;;;;;;;5059520;28;20525;-61
2021/03/20 12:38:12;;;;;;;16.40;4.00;;;;;;;;;;5048526;28;20256;-61
2021/03/20 12:40:58;;;;;;;21.30;4.55;;;;;;;;;;5049960;28;20055;-61
2021/03/20 12:43:27;;;;;;;18.17;3.65;;;;;;;;;;5048182;28;20040;-61
2021/03/20 12:45:56;;;;;;;10.23;3.70;;;;;;;;;;5050832;28;20059;-61
2021/03/20 12:48:22;;;;;;;;;;;;;;;;;;5047458;28;20115;-61
2021/03/20 12:50:49;;;;;;;17.20;4.38;;;;;;;;;;5044450;28;19920;-61
2021/03/20 12:53:15;;;;;;;39.28;5.85;;;;;;;;;;5048465;28;20116;-61
2021/03/20 12:55:41;;;;;;;33.70;6.75;;;;;;;;;;5045147;28;20488;-61
2021/03/20 12:58:07;;;;;;;26.00;5.25;;;;;;;;;;5049584;28;20041;-61
2021/03/20 13:00:33;;;;;;;24.15;5.50;;;;;;;;;;5047436;28;20691;-61
2021/03/20 13:03:01;;;;;;;11.65;3.15;;;;;;;;;;5042179;28;20049;-61
2021/03/20 13:05:29;;;;;;;12.90;4.45;;;;;;;;;;5047584;28;20060;-61
2021/03/20 13:07:56;;;;;;;21.83;4.65;;;;;;;;;;5050085;28;20048;-61
2021/03/20 13:10:22;;;;;;;17.48;4.13;;;;;;;;;;5045098;28;20069;-61
2021/03/20 13:12:49;;;;;;;19.65;6.20;;;;;;;;;;5043183;28;20049;-61
2021/03/20 13:15:16;;;;;;;19.13;6.15;;;;;;;;;;5050404;28;20984;-61
2021/03/20 13:17:42;;;;;;;10.77;3.10;;;;;;;;;;5045421;28;20067;-61
2021/03/20 13:20:09;;;;;;;18.33;12.38;;;;;;;;;;5048890;28;20047;-61
2021/03/20 13:22:35;;;;;;;21.50;10.48;;;;;;;;;;5040255;28;20114;-61
2021/03/20 13:25:02;;;;;;;13.35;7.95;;;;;;;;;;5046554;28;20499;-61
2021/03/20 13:27:29;;;;;;;8.40;3.58;;;;;;;;;;5050292;28;20053;-61
2021/03/20 13:29:55;;;;;;;12.35;3.80;;;;;;;;;;5039936;28;20045;-62
2021/03/20 13:32:22;;;;;;;9.68;2.97;;;;;;;;;;5048718;28;20037;-61
2021/03/20 13:34:48;;;;;;;17.47;4.57;;;;;;;;;;5049514;28;20116;-62
2021/03/20 13:37:14;;;;;;;9.75;3.13;;;;;;;;;;5050291;28;20099;-61
2021/03/20 13:39:40;;;;;;;18.98;3.53;;;;;;;;;;5049153;28;20067;-61
2021/03/20 13:42:06;;;;;;;13.45;2.80;;;;;;;;;;5049823;28;20045;-61
2021/03/20 13:44:33;;;;;;;14.45;3.10;;;;;;;;;;5057698;28;20492;-61
2021/03/20 13:47:01;;;;;;;14.13;2.38;;;;;;;;;;5045392;28;20061;-62
2021/03/20 13:49:27;;;;;;;10.30;2.92;;;;;;;;;;5047801;28;20459;-61
2021/03/20 13:51:53;;;;;;;9.07;2.50;;;;;;;;;;5038219;28;20044;-61
2021/03/20 13:54:19;;;;;;;14.25;2.90;;;;;;;;;;5041562;28;20069;-61
2021/03/20 13:56:46;;;;;;;7.65;2.47;;;;;;;;;;5044750;28;20053;-61
2021/03/20 13:59:12;;;;;;;14.02;3.42;;;;;;;;;;5042948;28;20445;-61
2021/03/20 14:01:38;;;;;;;8.48;2.63;;;;;;;;;;5039475;28;20087;-61
2021/03/20 14:04:05;;;;;;;9.60;2.67;;;;;;;;;;5046440;28;20130;-61
2021/03/20 14:06:32;;;;;;;8.45;2.83;;;;;;;;;;5045101;28;20053;-61
2021/03/20 14:08:58;;;;;;;11.15;2.80;;;;;;;;;;5049529;28;20500;-61
2021/03/20 14:11:24;;;;;;;12.55;2.90;;;;;;;;;;5040298;28;20072;-61
2021/03/20 14:13:50;;;;;;;15.02;4.15;;;;;;;;;;5043219;28;20090;-61
2021/03/20 14:16:17;;;;;;;12.57;4.03;;;;;;;;;;5047324;28;20033;-61
2021/03/20 14:18:44;;;;;;;20.20;4.72;;;;;;;;;;5046901;28;20488;-61
2021/03/20 14:21:14;;;;;;;12.35;4.63;;;;;;;;;;5046794;28;20064;-61
2021/03/20 14:23:40;;;;;;;16.90;4.80;;;;;;;;;;5044470;28;20046;-61
2021/03/20 14:26:06;;;;;;;14.88;4.95;;;;;;;;;;5047275;28;20095;-61
2021/03/20 14:28:32;;;;;;;16.45;4.07;;;;;;;;;;5038723;28;20132;-62
2021/03/20 14:31:00;;;;;;;16.95;3.95;;;;;;;;;;5042903;28;20045;-61
2021/03/20 14:33:26;;;;;;;;;;;;;;;;;;5048185;28;20068;-61
2021/03/20 14:35:53;;;;;;;10.30;3.50;;;;;;;;;;5046621;28;20300;-61
2021/03/20 14:38:21;;;;;;;13.57;3.50;;;;;;;;;;5043912;28;20045;-61
2021/03/20 14:40:48;;;;;;;10.70;3.50;;;;;;;;;;5050564;28;20044;-61
2021/03/20 14:43:15;;;;;;;9.55;3.40;;;;;;;;;;5047063;28;20052;-61
2021/03/20 14:45:41;;;;;;;11.43;3.83;;;;;;;;;;5048793;28;20072;-60
2021/03/20 14:48:08;;;;;;;9.13;3.58;;;;;;;;;;5049046;28;20036;-61
2021/03/20 14:50:35;;;;;;;7.18;2.80;;;;;;;;;;5050240;28;20041;-61
2021/03/20 14:53:03;;;;;;;17.58;3.25;;;;;;;;;;5045208;28;20042;-61
2021/03/20 14:55:30;;;;;;;15.93;3.45;;;;;;;;;;5050338;28;20037;-61
2021/03/20 14:57:56;;;;;;;11.65;2.80;;;;;;;;;;5041238;28;20103;-61
2021/03/20 15:00:26;;;;;;;15.38;3.15;;;;;;;;;;5048416;28;20088;-61
2021/03/20 15:02:53;;;;;;;9.82;2.90;;;;;;;;;;5048981;28;20063;-61
2021/03/20 15:05:21;;;;;;;14.65;3.15;;;;;;;;;;5051033;28;20057;-61